Niceville, FL

2:03 AM CST on January 23, 2017 (GMT -0600)
BayView Cam/Weather courtesy Clara Miles, REALTOR | | Change Station
Active Advisory: Small Craft Advisory

Elev 27 ft 30.49 °N, 86.46 °W | Updated 5 minutes ago

Clear
Clear
57.1 °F
Feels Like 57.1 °F
N
6.0
Wind Variable Wind from West
Gusts 16.0 mph

Today
High -- | Low -- °F
--% Chance of Precip.
Yesterday
High -- | Low -- °F
Precip. -- in
Pressure 29.47 in
Visibility 10.0 miles
Clouds Few 5000 ft
Few 11000 ft
Dew Point 47 °F
Humidity 69%
Rainfall 0.00 in
Snow Depth Not available.
6:41 AM 5:14 PM
Waning Crescent, 20% visible
METAR KVPS 230755Z 27013KT 10SM FEW050 FEW110 13/07 A2946 RMK AO2A SLP977 T01340066 $
Pressure 29.47 in
Visibility 10.0 miles
Clouds Few 5000 ft
Few 11000 ft
Dew Point 47 °F
Humidity 69%
Rainfall 0.00 in
Snow Depth Not available.
6:41 AM 5:14 PM
Waning Crescent, 20% visible
METAR KVPS 230755Z 27013KT 10SM FEW050 FEW110 13/07 A2946 RMK AO2A SLP977 T01340066 $

Get Your Daily Forecast Email!

Thanks for signing up!

Be on the lookout for a verification email in your inbox.

You'll start receiving the daily forecast at 8 AM.

×

10-Day Weather Forecast

Almanac

Astronomy

Jan. 23, 2017 Rise Set
Actual Time
Civil Twilight
Nautical Twilight
Astronomical Twilight
Moon
Length of Visible Light
Length of Day
Tomorrow will be .
, % of the Moon is Illuminated

Today's Extremes

State Highs State Lows

Community

WunderPhotos

Upload Photos

1,962,540 photos uploaded!

WunderBlog® & News

Nearby

Air Quality

  Air Quality AQ Index Pollutant
Not available.

Snow Depth

Station Depth Elevation

Earthquake Activity

City Distance Mag. Time & Date
Minimum magnitude displayed is 2.5.

Coastal Water Temperatures

Place Temperature

Stations

Nearby Weather Stations

Station Location Temp. Windchill Dew Point Humidity Wind Precip. Elev Updated Type
                   

Watches & Warnings

Small Craft Advisory
Issued: 10:17 PM CST Jan. 22, 2017 – National Weather Service

... Small Craft Advisory remains in effect until 6 PM CST Monday...

* winds... west 20 to 30 knots becoming northwest with frequent
higher gusts likely.

* Waves... rough.

Precautionary/preparedness actions...

A Small Craft Advisory means that wind speeds or frequent gusts
of 20 to 33 knots and/or seas of 7 feet or higher are expected to
produce hazardous wave conditions to small craft. Inexperienced
mariners... especially those operating smaller vessels should
avoid navigating in these conditions.